Observation data for Pampa on 06/25/2019      Previous  Date       Current Mesonet Observations  Soil Data  Daily Summary Page  Observations in Plain Language
KPMS 250500Z 15012KT 20/12 A2998 RMK A01 T01950120  RH  064%=      5-min Rain = 0
KPMS 250505Z 15012KT 20/12 A2998 RMK A01 T01950120  RH  064%=      5-min Rain = 0
KPMS 250510Z 15013KT 19/12 A2998 RMK A01 T01940122  RH  065%=      5-min Rain = 0
KPMS 250515Z 15012KT 19/12 A2997 RMK A01 T01940123  RH  066%=      5-min Rain = 0
KPMS 250520Z 15013KT 19/12 A2997 RMK A01 T01940124  RH  067%=      5-min Rain = 0
KPMS 250525Z 15012KT 19/13 A2997 RMK A01 T01940125  RH  067%=      5-min Rain = 0
KPMS 250530Z 15011KT 19/13 A2997 RMK A01 T01920126  RH  068%=      5-min Rain = 0
KPMS 250535Z 15013KT 19/13 A2997 RMK A01 T01920127  RH  069%=      5-min Rain = 0
KPMS 250540Z 15014KT 19/13 A2997 RMK A01 T01940129  RH  068%=      5-min Rain = 0
KPMS 250545Z 15013KT 20/13 A2997 RMK A01 T01950130  RH  069%=      5-min Rain = 0
KPMS 250550Z 15013KT 20/13 A2997 RMK A01 T01950131  RH  069%=      5-min Rain = 0
KPMS 250555Z 15012KT 19/13 A2997 RMK A01 T01930131  RH  070%=      5-min Rain = 0
KPMS 250600Z 16012KT 19/13 A2997 RMK A01 T01930132  RH  071%=      5-min Rain = 0
KPMS 250605Z 15011KT 19/13 A2997 RMK A01 T01910133  RH  072%=      5-min Rain = 0
KPMS 250610Z 15012KT 19/13 A2997 RMK A01 T01900134  RH  073%=      5-min Rain = 0
KPMS 250615Z 16013KT 19/14 A2997 RMK A01 T01920137  RH  073%=      5-min Rain = 0
KPMS 250620Z 16012KT 19/14 A2997 RMK A01 T01930139  RH  074%=      5-min Rain = 0
KPMS 250625Z 16012KT 19/14 A2996 RMK A01 T01940142  RH  075%=      5-min Rain = 0
KPMS 250630Z 16013KT 20/14 A2996 RMK A01 T01950143  RH  075%=      5-min Rain = 0
KPMS 250635Z 16013KT 20/14 A2997 RMK A01 T01950144  RH  076%=      5-min Rain = 0
KPMS 250640Z 16013KT 19/15 A2996 RMK A01 T01940146  RH  077%=      5-min Rain = 0
KPMS 250645Z 16014KT 19/15 A2996 RMK A01 T01930147  RH  078%=      5-min Rain = 0
KPMS 250650Z 16013KT 19/15 A2996 RMK A01 T01920147  RH  078%=      5-min Rain = 0
KPMS 250655Z 16013KT 19/15 A2996 RMK A01 T01910147  RH  079%=      5-min Rain = 0
KPMS 250700Z 17012KT 19/15 A2997 RMK A01 T01900146  RH  079%=      5-min Rain = 0
KPMS 250705Z 17011KT 19/15 A2997 RMK A01 T01890145  RH  079%=      5-min Rain = 0
KPMS 250710Z 17012KT 19/15 A2997 RMK A01 T01890146  RH  079%=      5-min Rain = 0
KPMS 250715Z 16013KT 19/15 A2997 RMK A01 T01890148  RH  080%=      5-min Rain = 0
KPMS 250720Z 16013KT 19/15 A2997 RMK A01 T01900150  RH  081%=      5-min Rain = 0
KPMS 250725Z 17013KT 19/15 A2997 RMK A01 T01900151  RH  082%=      5-min Rain = 0
KPMS 250730Z 17012KT 19/15 A2997 RMK A01 T01910152  RH  082%=      5-min Rain = 0
KPMS 250735Z 16012KT 19/15 A2997 RMK A01 T01900153  RH  083%=      5-min Rain = 0
KPMS 250740Z 16011KT 19/16 A2997 RMK A01 T01900155  RH  084%=      5-min Rain = 0
KPMS 250745Z 16011KT 19/16 A2997 RMK A01 T01920157  RH  084%=      5-min Rain = 0
KPMS 250750Z 16011KT 19/16 A2997 RMK A01 T01920157  RH  084%=      5-min Rain = 0
KPMS 250755Z 16011KT 19/16 A2997 RMK A01 T01940160  RH  085%=      5-min Rain = 0
KPMS 250800Z 15012KT 20/16 A2997 RMK A01 T01950161  RH  085%=      5-min Rain = 0
KPMS 250805Z 16012KT 20/16 A2997 RMK A01 T01950162  RH  085%=      5-min Rain = 0
KPMS 250810Z 16011KT 20/16 A2997 RMK A01 T01970164  RH  085%=      5-min Rain = 0
KPMS 250815Z 16011KT 20/17 A2997 RMK A01 T01970165  RH  086%=      5-min Rain = 0
KPMS 250820Z 16011KT 20/17 A2997 RMK A01 T01970165  RH  086%=      5-min Rain = 0
KPMS 250825Z 15011KT 20/17 A2997 RMK A01 T01960165  RH  086%=      5-min Rain = 0
KPMS 250830Z 15010G15KT 19/17 A2997 RMK A01 T01940166  RH  088%=      5-min Rain = 0
KPMS 250835Z 15010KT 19/17 A2997 RMK A01 T01940167  RH  088%=      5-min Rain = 0
KPMS 250840Z 15010KT 19/17 A2997 RMK A01 T01940166  RH  088%=      5-min Rain = 0
KPMS 250845Z 15011KT 20/17 A2997 RMK A01 T01960167  RH  088%=      5-min Rain = 0
KPMS 250850Z 15011KT 20/17 A2997 RMK A01 T01970169  RH  088%=      5-min Rain = 0
KPMS 250855Z 16010KT 20/17 A2997 RMK A01 T01980173  RH  090%=      5-min Rain = 0
KPMS 250900Z 15011KT 20/17 A2997 RMK A01 T01950170  RH  090%=      5-min Rain = 0
KPMS 250905Z 15011KT 19/17 A2997 RMK A01 T01930170  RH  091%=      5-min Rain = 0
KPMS 250910Z 15011KT 19/17 A2997 RMK A01 T01930171  RH  092%=      5-min Rain = 0
KPMS 250915Z 15010KT 19/17 A2997 RMK A01 T01910170  RH  092%=      5-min Rain = 0
KPMS 250920Z 14009KT 19/17 A2997 RMK A01 T01900169  RH  092%=      5-min Rain = 0
KPMS 250925Z 15009KT 19/17 A2997 RMK A01 T01880168  RH  093%=      5-min Rain = 0
KPMS 250930Z 15009KT 19/17 A2997 RMK A01 T01880170  RH  094%=      5-min Rain = 0
KPMS 250935Z 15010KT 19/17 A2997 RMK A01 T01900171  RH  094%=      5-min Rain = 0
KPMS 250940Z 15010KT 19/17 A2998 RMK A01 T01910172  RH  093%=      5-min Rain = 0
KPMS 250945Z 15010KT 19/18 A2998 RMK A01 T01940175  RH  093%=      5-min Rain = 0
KPMS 250950Z 15009KT 20/18 A2997 RMK A01 T01970177  RH  093%=      5-min Rain = 0
KPMS 250955Z 15010KT 20/18 A2997 RMK A01 T01970177  RH  093%=      5-min Rain = 0
KPMS 251000Z 14011KT 20/18 A2997 RMK A01 T01970178  RH  094%=      5-min Rain = 0
KPMS 251005Z 15011KT 20/18 A2997 RMK A01 T01990180  RH  094%=      5-min Rain = 0
KPMS 251010Z 15012KT 20/18 A2998 RMK A01 T02000181  RH  094%=      5-min Rain = 0
KPMS 251015Z 15011KT 20/18 A2998 RMK A01 T02000182  RH  094%=      5-min Rain = 0
KPMS 251020Z 15011KT 20/18 A2998 RMK A01 T02000182  RH  094%=      5-min Rain = 0
KPMS 251025Z 15011KT 20/18 A2998 RMK A01 T02000183  RH  095%=      5-min Rain = 0
KPMS 251030Z 16010KT 20/18 A2998 RMK A01 T01990182  RH  095%=      5-min Rain = 0
KPMS 251035Z 16010KT 20/18 A2998 RMK A01 T01980182  RH  095%=      5-min Rain = 0
KPMS 251040Z 16009KT 20/18 A2998 RMK A01 T01980182  RH  095%=      5-min Rain = 0
KPMS 251045Z 16009KT 20/18 A2999 RMK A01 T01970182  RH  096%=      5-min Rain = 0
KPMS 251050Z 16008KT 20/18 A2999 RMK A01 T01970182  RH  096%=      5-min Rain = 0
KPMS 251055Z 16008KT 20/18 A2999 RMK A01 T01980183  RH  096%=      5-min Rain = 0
KPMS 251100Z 16008KT 20/18 A2999 RMK A01 T01990184  RH  096%=      5-min Rain = 0
KPMS 251105Z 17009KT 20/19 A30 RMK A01 T01990185  RH  096%=      5-min Rain = 0
KPMS 251110Z 17008KT 20/19 A30 RMK A01 T02000186  RH  097%=      5-min Rain = 0
KPMS 251115Z 17009KT 20/19 A2999 RMK A01 T02000186  RH  097%=      5-min Rain = 0
KPMS 251120Z 16008KT 20/19 A2999 RMK A01 T02000186  RH  096%=      5-min Rain = 0
KPMS 251125Z 16010KT 20/19 A2999 RMK A01 T02000186  RH  096%=      5-min Rain = 0
KPMS 251130Z 16010KT 20/19 A2999 RMK A01 T02000186  RH  096%=      5-min Rain = 0
KPMS 251135Z 16010KT 20/19 A30 RMK A01 T02010186  RH  096%=      5-min Rain = 0
KPMS 251140Z 16009KT 20/19 A30 RMK A01 T02010186  RH  096%=      5-min Rain = 0
KPMS 251145Z 16009KT 20/19 A30 RMK A01 T02010186  RH  096%=      5-min Rain = 0
KPMS 251150Z 16009G14KT 20/19 A30 RMK A01 T02020186  RH  096%=      5-min Rain = 0
KPMS 251155Z 16010KT 20/19 A30 RMK A01 T02010186  RH  096%=      5-min Rain = 0
KPMS 251200Z 17009KT 20/19 A30 RMK A01 T02010185  RH  096%=      5-min Rain = 0
KPMS 251205Z 17009KT 20/19 A30 RMK A01 T01990185  RH  096%=      5-min Rain = 0
KPMS 251210Z 17008KT 20/19 A30 RMK A01 T01990185  RH  097%=      5-min Rain = 0
KPMS 251215Z 17008KT 20/18 A30 RMK A01 T01980184  RH  097%=      5-min Rain = 0
KPMS 251220Z 17007KT 20/18 A3001 RMK A01 T01970184  RH  097%=      5-min Rain = 0
KPMS 251225Z 17008KT 20/19 A3001 RMK A01 T01980185  RH  097%=      5-min Rain = 0
KPMS 251230Z 17008KT 20/19 A3001 RMK A01 T02000187  RH  097%=      5-min Rain = 0
KPMS 251235Z 18008KT 20/19 A3001 RMK A01 T02020187  RH  096%=      5-min Rain = 0
KPMS 251240Z 18009KT 20/19 A3002 RMK A01 T02040186  RH  094%=      5-min Rain = 0
KPMS 251245Z 18009KT 21/19 A3002 RMK A01 T02060186  RH  093%=      5-min Rain = 0
KPMS 251250Z 19011KT 21/19 A3002 RMK A01 T02070185  RH  092%=      5-min Rain = 0
KPMS 251255Z 19011KT 21/19 A3002 RMK A01 T02080185  RH  092%=      5-min Rain = 0
KPMS 251300Z 19011KT 21/19 A3002 RMK A01 T02070185  RH  092%=      5-min Rain = 0
KPMS 251305Z 19012KT 21/19 A3002 RMK A01 T02080185  RH  092%=      5-min Rain = 0
KPMS 251310Z 19011G16KT 21/18 A3002 RMK A01 T02090184  RH  090%=      5-min Rain = 0
KPMS 251315Z 19013KT 21/18 A3002 RMK A01 T02120182  RH  088%=      5-min Rain = 0
KPMS 251320Z 19013KT 21/18 A3002 RMK A01 T02120181  RH  087%=      5-min Rain = 0
KPMS 251325Z 19012KT 21/18 A3002 RMK A01 T02130182  RH  087%=      5-min Rain = 0
KPMS 251330Z 19011KT 22/18 A3002 RMK A01 T02160181  RH  085%=      5-min Rain = 0
KPMS 251335Z 19012KT 22/18 A3002 RMK A01 T02180180  RH  083%=      5-min Rain = 0
KPMS 251340Z 19012KT 22/18 A3003 RMK A01 T02200177  RH  081%=      5-min Rain = 0
KPMS 251345Z 19010KT 22/18 A3003 RMK A01 T02230177  RH  080%=      5-min Rain = 0
KPMS 251350Z 19011G16KT 23/18 A3003 RMK A01 T02250177  RH  078%=      5-min Rain = 0
KPMS 251355Z 18012KT 23/18 A3003 RMK A01 T02250176  RH  078%=      5-min Rain = 0
KPMS 251400Z 19012KT 23/18 A3003 RMK A01 T02250175  RH  077%=      5-min Rain = 0
KPMS 251405Z 19011KT 23/17 A3003 RMK A01 T02270171  RH  074%=      5-min Rain = 0
KPMS 251410Z 20009KT 23/17 A3003 RMK A01 T02320171  RH  072%=      5-min Rain = 0
KPMS 251415Z 21009KT 24/17 A3003 RMK A01 T02350166  RH  069%=      5-min Rain = 0
KPMS 251420Z 21010G17KT 24/17 A3003 RMK A01 T02370166  RH  068%=      5-min Rain = 0
KPMS 251425Z 21011KT 24/16 A3003 RMK A01 T02390164  RH  066%=      5-min Rain = 0
KPMS 251430Z 22009G14KT 24/16 A3003 RMK A01 T02390164  RH  066%=      5-min Rain = 0
KPMS 251435Z 22011KT 24/16 A3003 RMK A01 T02410157  RH  062%=      5-min Rain = 0
KPMS 251440Z 23010G17KT 25/16 A3003 RMK A01 T02470156  RH  060%=      5-min Rain = 0
KPMS 251445Z 23013G19KT 25/15 A3002 RMK A01 T02480150  RH  057%=      5-min Rain = 0
KPMS 251450Z 24014G19KT 25/15 A3002 RMK A01 T02490146  RH  055%=      5-min Rain = 0
KPMS 251455Z 24012G19KT 25/15 A3002 RMK A01 T02520148  RH  055%=      5-min Rain = 0
KPMS 251500Z 24012G18KT 25/15 A3002 RMK A01 T02540145  RH  053%=      5-min Rain = 0
KPMS 251505Z 24010KT 26/14 A3002 RMK A01 T02580144  RH  052%=      5-min Rain = 0
KPMS 251510Z 23011G16KT 26/14 A3002 RMK A01 T02600143  RH  051%=      5-min Rain = 0
KPMS 251515Z 25011G16KT 26/14 A3002 RMK A01 T02620142  RH  050%=      5-min Rain = 0
KPMS 251520Z 24010G15KT 26/14 A3002 RMK A01 T02630143  RH  050%=      5-min Rain = 0
KPMS 251525Z 25011G16KT 26/14 A3002 RMK A01 T02640142  RH  049%=      5-min Rain = 0
KPMS 251530Z 23010G17KT 27/14 A3002 RMK A01 T02650143  RH  049%=      5-min Rain = 0
KPMS 251535Z 23010G15KT 27/14 A3002 RMK A01 T02660144  RH  049%=      5-min Rain = 0
KPMS 251540Z 23010G15KT 27/14 A3002 RMK A01 T02680143  RH  048%=      5-min Rain = 0
KPMS 251545Z 24010G16KT 27/14 A3002 RMK A01 T02700142  RH  048%=      5-min Rain = 0
KPMS 251550Z 23009G14KT 27/14 A3002 RMK A01 T02710142  RH  047%=      5-min Rain = 0
KPMS 251555Z 23009G14KT 27/14 A3002 RMK A01 T02740144  RH  047%=      5-min Rain = 0
KPMS 251600Z 22009KT 28/14 A3003 RMK A01 T02780144  RH  046%=      5-min Rain = 0
KPMS 251605Z 23009G14KT 28/14 A3003 RMK A01 T02750142  RH  046%=      5-min Rain = 0
KPMS 251610Z 21009KT 28/14 A3003 RMK A01 T02760142  RH  046%=      5-min Rain = 0
KPMS 251615Z 22009KT 28/14 A3003 RMK A01 T02780142  RH  045%=      5-min Rain = 0
KPMS 251620Z 21007G13KT 28/15 A3004 RMK A01 T02810145  RH  045%=      5-min Rain = 0
KPMS 251625Z 21009G15KT 28/14 A3004 RMK A01 T02820140  RH  043%=      5-min Rain = 0
KPMS 251630Z 20008KT 28/14 A3004 RMK A01 T02820139  RH  043%=      5-min Rain = 0
KPMS 251635Z 18010KT 29/14 A3003 RMK A01 T02850138  RH  042%=      5-min Rain = 0
KPMS 251640Z 20007KT 29/14 A3003 RMK A01 T02860139  RH  042%=      5-min Rain = 0
KPMS 251645Z 23006KT 29/14 A3003 RMK A01 T02860141  RH  043%=      5-min Rain = 0
KPMS 251650Z 20008G13KT 29/14 A3003 RMK A01 T02890138  RH  041%=      5-min Rain = 0
KPMS 251655Z 21007G13KT 29/14 A3003 RMK A01 T02910141  RH  042%=      5-min Rain = 0
KPMS 251700Z 23007G14KT 29/14 A3003 RMK A01 T02930141  RH  041%=      5-min Rain = 0
KPMS 251705Z 20009KT 29/14 A3003 RMK A01 T02930140  RH  041%=      5-min Rain = 0
KPMS 251710Z 18009KT 30/14 A3003 RMK A01 T02950141  RH  041%=      5-min Rain = 0
KPMS 251715Z 16009G14KT 30/15 A3003 RMK A01 T02980145  RH  041%=      5-min Rain = 0
KPMS 251720Z 18009KT 30/14 A3003 RMK A01 T02960139  RH  040%=      5-min Rain = 0
KPMS 251725Z 18007KT 30/14 A3003 RMK A01 T02970139  RH  040%=      5-min Rain = 0
KPMS 251730Z 18008G13KT 30/14 A3002 RMK A01 T02970140  RH  040%=      5-min Rain = 0
KPMS 251735Z 19009G14KT 30/14 A3002 RMK A01 T02990138  RH  039%=      5-min Rain = 0
KPMS 251740Z 16009G15KT 30/14 A3002 RMK A01 T03010142  RH  040%=      5-min Rain = 0
KPMS 251745Z 18009G14KT 31/14 A3002 RMK A01 T03080142  RH  038%=      5-min Rain = 0
KPMS 251750Z 16006KT 30/14 A3002 RMK A01 T03040142  RH  039%=      5-min Rain = 0
KPMS 251755Z 19008KT 31/14 A3002 RMK A01 T03060142  RH  039%=      5-min Rain = 0
KPMS 251800Z 16008G16KT 31/14 A3002 RMK A01 T03050142  RH  039%=      5-min Rain = 0
KPMS 251805Z 18009KT 31/14 A3002 RMK A01 T03070140  RH  038%=      5-min Rain = 0
KPMS 251810Z 17011G16KT 31/14 A3002 RMK A01 T03060139  RH  038%=      5-min Rain = 0
KPMS 251815Z 15010G16KT 31/14 A3002 RMK A01 T03070142  RH  038%=      5-min Rain = 0
KPMS 251820Z 19009G14KT 31/14 A3002 RMK A01 T03110138  RH  036%=      5-min Rain = 0
KPMS 251825Z 18008G14KT 31/14 A3002 RMK A01 T03090142  RH  038%=      5-min Rain = 0
KPMS 251830Z 18008G13KT 31/14 A3002 RMK A01 T03080142  RH  038%=      5-min Rain = 0
KPMS 251835Z 14009KT 31/15 A3002 RMK A01 T03120154  RH  040%=      5-min Rain = 0
KPMS 251840Z 14010KT 31/15 A3002 RMK A01 T03070150  RH  040%=      5-min Rain = 0
KPMS 251845Z 13007KT 30/15 A3002 RMK A01 T03040150  RH  041%=      5-min Rain = 0
KPMS 251850Z 15010KT 31/15 A3002 RMK A01 T03090150  RH  040%=      5-min Rain = 0
KPMS 251855Z 14008KT 31/15 A3001 RMK A01 T03090149  RH  040%=      5-min Rain = 0
KPMS 251900Z 14009G14KT 31/15 A3001 RMK A01 T03100150  RH  040%=      5-min Rain = 0
KPMS 251905Z 15010G15KT 31/15 A3001 RMK A01 T03110150  RH  039%=      5-min Rain = 0
KPMS 251910Z 16011KT 31/15 A3001 RMK A01 T03140151  RH  039%=      5-min Rain = 0
KPMS 251915Z 15011KT 31/16 A3001 RMK A01 T03140155  RH  040%=      5-min Rain = 0
KPMS 251920Z 15012G17KT 32/16 A3001 RMK A01 T03150156  RH  040%=      5-min Rain = 0
KPMS 251925Z 15013KT 31/15 A3001 RMK A01 T03110152  RH  040%=      5-min Rain = 0
KPMS 251930Z 14012KT 32/16 A3001 RMK A01 T03160156  RH  040%=      5-min Rain = 0
KPMS 251935Z 13010G16KT 31/16 A3001 RMK A01 T03120158  RH  041%=      5-min Rain = 0
KPMS 251940Z 16011G16KT 32/16 A3001 RMK A01 T03150156  RH  040%=      5-min Rain = 0
KPMS 251945Z 14012KT 31/15 A30 RMK A01 T03130154  RH  040%=      5-min Rain = 0
KPMS 251950Z 14013KT 31/16 A30 RMK A01 T03120156  RH  041%=      5-min Rain = 0
KPMS 251955Z 15014G20KT 31/16 A30 RMK A01 T03140155  RH  040%=      5-min Rain = 0
KPMS 252000Z 14014G20KT 32/16 A30 RMK A01 T03160156  RH  040%=      5-min Rain = 0
KPMS 252005Z 14015G20KT 31/15 A2999 RMK A01 T03130152  RH  039%=      5-min Rain = 0
KPMS 252010Z 14013G18KT 32/15 A2999 RMK A01 T03160153  RH  039%=      5-min Rain = 0
KPMS 252015Z 15014G19KT 32/15 A2999 RMK A01 T03190149  RH  037%=      5-min Rain = 0
KPMS 252020Z 15014G19KT 31/15 A2999 RMK A01 T03090146  RH  039%=      5-min Rain = 0
KPMS 252025Z 15013KT 31/15 A2998 RMK A01 T03060145  RH  039%=      5-min Rain = 0
KPMS 252030Z 15012G18KT 31/15 A2998 RMK A01 T03130149  RH  039%=      5-min Rain = 0
KPMS 252035Z 16014G19KT 30/14 A2998 RMK A01 T03030138  RH  038%=      5-min Rain = 0
KPMS 252040Z 14013G18KT 30/14 A2998 RMK A01 T02980141  RH  040%=      5-min Rain = 0
KPMS 252045Z 14014KT 30/14 A2998 RMK A01 T02960142  RH  041%=      5-min Rain = 0
KPMS 252050Z 15014G21KT 30/15 A2998 RMK A01 T03010147  RH  041%=      5-min Rain = 0
KPMS 252055Z 15015KT 31/15 A2997 RMK A01 T03130146  RH  038%=      5-min Rain = 0
KPMS 252100Z 14015KT 30/14 A2997 RMK A01 T03030142  RH  039%=      5-min Rain = 0
KPMS 252105Z 14013G18KT 30/14 A2997 RMK A01 T02980144  RH  041%=      5-min Rain = 0
KPMS 252110Z 13013G19KT 29/15 A2997 RMK A01 T02940154  RH  045%=      5-min Rain = 0
KPMS 252115Z 13015KT 29/16 A2997 RMK A01 T02920159  RH  047%=      5-min Rain = 0
KPMS 252120Z 13013G19KT 29/17 A2998 RMK A01 T02900168  RH  050%=      5-min Rain = 0
KPMS 252125Z 13017G22KT 29/17 A2997 RMK A01 T02890168  RH  050%=      5-min Rain = 0
KPMS 252130Z 13016G21KT 29/17 A2996 RMK A01 T02870167  RH  051%=      5-min Rain = 0
KPMS 252135Z 12017KT 29/17 A2996 RMK A01 T02850166  RH  051%=      5-min Rain = 0
KPMS 252140Z 13015G20KT 28/16 A2996 RMK A01 T02820163  RH  051%=      5-min Rain = 0
KPMS 252145Z 12016G21KT 28/16 A2995 RMK A01 T02800163  RH  051%=      5-min Rain = 0
KPMS 252150Z 12016KT 28/16 A2994 RMK A01 T02780163  RH  052%=      5-min Rain = 0
KPMS 252155Z 13016KT 28/16 A2996 RMK A01 T02770162  RH  052%=      5-min Rain = 0
KPMS 252200Z 13014KT 28/16 A2997 RMK A01 T02750163  RH  053%=      5-min Rain = 0
KPMS 252205Z 13013KT 27/16 A2997 RMK A01 T02740163  RH  053%=      5-min Rain = 0
KPMS 252210Z 13012G18KT 27/16 A2998 RMK A01 T02730163  RH  054%=      5-min Rain = 0
KPMS 252215Z 14010KT 27/17 A2998 RMK A01 T02670168  RH  058%=      5-min Rain = 0
KPMS 252220Z 14009KT 25/18 A2999 RMK A01 T02520175  RH  066%=      5-min Rain = 0
KPMS 252225Z 15010KT 25/18 A30 RMK A01 T02450179  RH  070%=      5-min Rain = 0
KPMS 252230Z 21011G21KT 25/17 A3001 RMK A01 T02480170  RH  065%=      5-min Rain = 0
KPMS 252235Z 22014G22KT 25/14 A3002 RMK A01 T02470137  RH  052%=      5-min Rain = 0
KPMS 252240Z 22013G20KT 25/11 A3001 RMK A01 T02480113  RH  044%=      5-min Rain = 0
KPMS 252245Z 22012G18KT 25/11 A30 RMK A01 T02460105  RH  042%=      5-min Rain = 0
KPMS 252250Z 22018G36KT 25/10 A2999 RMK A01 T02470097  RH  040%=      5-min Rain = 0
KPMS 252255Z 24024G37KT 26/08 A2999 RMK A01 T02590083  RH  034%=      5-min Rain = 0
KPMS 252300Z 27021G35KT 24/10 A2999 RMK A01 T02420102  RH  042%=      5-min Rain = 0
KPMS 252305Z 31014G24KT 23/10 A3001 RMK A01 T02320102  RH  045%=      5-min Rain = 0.01
KPMS 252310Z 06013G18KT 24/10 A3001 RMK A01 T02400096  RH  041%=      5-min Rain = 0.01
KPMS 252315Z 08011KT 25/09 A3001 RMK A01 T02530085  RH  035%=      5-min Rain = 0
KPMS 252320Z 34015G29KT 27/06 A3003 RMK A01 T02680061  RH  028%=      5-min Rain = 0
KPMS 252325Z 33007G18KT 28/05 A3002 RMK A01 T02760047  RH  024%=      5-min Rain = 0.01
KPMS 252330Z 06012G19KT 28/05 A2999 RMK A01 T02760046  RH  024%=      5-min Rain = 0
KPMS 252335Z 10015G23KT 25/09 A2997 RMK A01 T02540087  RH  036%=      5-min Rain = 0
KPMS 252340Z 07017G22KT 26/07 A2995 RMK A01 T02590066  RH  030%=      5-min Rain = 0
KPMS 252345Z 07016G22KT 26/07 A2995 RMK A01 T02600068  RH  030%=      5-min Rain = 0
KPMS 252350Z 06012KT 26/07 A2996 RMK A01 T02560073  RH  032%=      5-min Rain = 0
KPMS 252355Z 09012G21KT 25/08 A2997 RMK A01 T02480081  RH  036%=      5-min Rain = 0
KPMS 260000Z 12015KT 24/09 A2997 RMK A01 T02440089  RH  038%=      5-min Rain = 0
KPMS 260005Z 12012KT 24/09 A2998 RMK A01 T02400092  RH  040%=      5-min Rain = 0
KPMS 260010Z 13013KT 24/09 A2997 RMK A01 T02360094  RH  042%=      5-min Rain = 0
KPMS 260015Z 13014KT 24/09 A2997 RMK A01 T02350094  RH  042%=      5-min Rain = 0
KPMS 260020Z 13012KT 24/09 A2996 RMK A01 T02350093  RH  042%=      5-min Rain = 0
KPMS 260025Z 12012KT 23/10 A2997 RMK A01 T02330096  RH  043%=      5-min Rain = 0
KPMS 260030Z 14013G18KT 24/09 A2998 RMK A01 T02360094  RH  042%=      5-min Rain = 0
KPMS 260035Z 14014KT 24/10 A2998 RMK A01 T02400095  RH  041%=      5-min Rain = 0
KPMS 260040Z 14013KT 24/10 A2998 RMK A01 T02380098  RH  042%=      5-min Rain = 0
KPMS 260045Z 14014KT 24/09 A2998 RMK A01 T02410094  RH  041%=      5-min Rain = 0
KPMS 260050Z 15014G19KT 24/09 A2998 RMK A01 T02430093  RH  040%=      5-min Rain = 0
KPMS 260055Z 16018G25KT 25/09 A2999 RMK A01 T02470087  RH  037%=      5-min Rain = 0
KPMS 260100Z 16015G20KT 25/09 A30 RMK A01 T02470089  RH  038%=      5-min Rain = 0
KPMS 260105Z 17012KT 24/10 A30 RMK A01 T02420095  RH  040%=      5-min Rain = 0
KPMS 260110Z 17011G17KT 24/10 A30 RMK A01 T02410097  RH  041%=      5-min Rain = 0
KPMS 260115Z 17014KT 24/10 A30 RMK A01 T02380100  RH  043%=      5-min Rain = 0
KPMS 260120Z 16015KT 24/10 A30 RMK A01 T02380099  RH  043%=      5-min Rain = 0
KPMS 260125Z 16015G20KT 24/10 A30 RMK A01 T02380098  RH  042%=      5-min Rain = 0
KPMS 260130Z 15014G21KT 24/10 A3001 RMK A01 T02410097  RH  041%=      5-min Rain = 0
KPMS 260135Z 16011KT 24/10 A3001 RMK A01 T02420097  RH  041%=      5-min Rain = 0
KPMS 260140Z 16011G16KT 24/10 A3002 RMK A01 T02440096  RH  040%=      5-min Rain = 0
KPMS 260145Z 16014KT 25/10 A3002 RMK A01 T02470096  RH  040%=      5-min Rain = 0
KPMS 260150Z 16014KT 25/10 A3002 RMK A01 T02450096  RH  040%=      5-min Rain = 0
KPMS 260155Z 17014KT 24/10 A3002 RMK A01 T02410099  RH  042%=      5-min Rain = 0
KPMS 260200Z 18013KT 24/10 A3003 RMK A01 T02350104  RH  045%=      5-min Rain = 0
KPMS 260205Z 17016KT 23/11 A3003 RMK A01 T02290107  RH  048%=      5-min Rain = 0
KPMS 260210Z 17015KT 23/11 A3003 RMK A01 T02260108  RH  049%=      5-min Rain = 0
KPMS 260215Z 18015G22KT 22/11 A3003 RMK A01 T02240111  RH  050%=      5-min Rain = 0
KPMS 260220Z 17018G23KT 22/11 A3003 RMK A01 T02180113  RH  053%=      5-min Rain = 0
KPMS 260225Z 16019G25KT 22/11 A3002 RMK A01 T02150114  RH  054%=      5-min Rain = 0
KPMS 260230Z 16021G28KT 22/11 A3002 RMK A01 T02160110  RH  053%=      5-min Rain = 0
KPMS 260235Z 16025G32KT 22/10 A3002 RMK A01 T02230104  RH  048%=      5-min Rain = 0
KPMS 260240Z 16024G32KT 22/10 A3002 RMK A01 T02240101  RH  047%=      5-min Rain = 0
KPMS 260245Z 16023G28KT 22/10 A3002 RMK A01 T02230100  RH  047%=      5-min Rain = 0
KPMS 260250Z 16024G33KT 22/10 A3002 RMK A01 T02240097  RH  046%=      5-min Rain = 0
KPMS 260255Z 16023G30KT 23/09 A3003 RMK A01 T02250094  RH  045%=      5-min Rain = 0
KPMS 260300Z 16022G29KT 22/09 A3004 RMK A01 T02240093  RH  044%=      5-min Rain = 0
KPMS 260305Z 16024G30KT 23/09 A3005 RMK A01 T02280090  RH  043%=      5-min Rain = 0
KPMS 260310Z 16023G32KT 23/09 A3006 RMK A01 T02270090  RH  043%=      5-min Rain = 0
KPMS 260315Z 17024G32KT 23/09 A3006 RMK A01 T02290089  RH  042%=      5-min Rain = 0
KPMS 260320Z 17021G29KT 23/09 A3006 RMK A01 T02280091  RH  043%=      5-min Rain = 0
KPMS 260325Z 17020G28KT 23/09 A3005 RMK A01 T02280091  RH  043%=      5-min Rain = 0
KPMS 260330Z 17021G28KT 23/09 A3005 RMK A01 T02300090  RH  042%=      5-min Rain = 0
KPMS 260335Z 17019G26KT 23/09 A3004 RMK A01 T02280091  RH  043%=      5-min Rain = 0
KPMS 260340Z 18020G29KT 23/09 A3004 RMK A01 T02280091  RH  043%=      5-min Rain = 0
KPMS 260345Z 17018G25KT 23/09 A3004 RMK A01 T02280091  RH  043%=      5-min Rain = 0
KPMS 260350Z 17019G25KT 23/09 A3004 RMK A01 T02280091  RH  043%=      5-min Rain = 0
KPMS 260355Z 16018G25KT 23/09 A3003 RMK A01 T02280091  RH  043%=      5-min Rain = 0
KPMS 260400Z 16019G24KT 23/09 A3003 RMK A01 T02270093  RH  044%=      5-min Rain = 0
KPMS 260405Z 17021G26KT 23/09 A3003 RMK A01 T02270092  RH  043%=      5-min Rain = 0
KPMS 260410Z 17017G22KT 23/09 A3004 RMK A01 T02250094  RH  045%=      5-min Rain = 0
KPMS 260415Z 16017KT 22/10 A3004 RMK A01 T02240095  RH  045%=      5-min Rain = 0
KPMS 260420Z 16016G22KT 22/10 A3004 RMK A01 T02230095  RH  045%=      5-min Rain = 0
KPMS 260425Z 16015KT 22/10 A3004 RMK A01 T02220095  RH  046%=      5-min Rain = 0
KPMS 260430Z 15015KT 22/10 A3004 RMK A01 T02210096  RH  047%=      5-min Rain = 0
KPMS 260435Z 16015KT 22/10 A3003 RMK A01 T02190096  RH  047%=      5-min Rain = 0
KPMS 260440Z 17016G21KT 22/10 A3002 RMK A01 T02190097  RH  047%=      5-min Rain = 0
KPMS 260445Z 17014G19KT 22/10 A3002 RMK A01 T02180097  RH  048%=      5-min Rain = 0
KPMS 260450Z 18011KT 22/10 A3001 RMK A01 T02160098  RH  048%=      5-min Rain = 0
KPMS 260455Z 19012G17KT 22/10 A3001 RMK A01 T02170098  RH  048%=      5-min Rain = 0

Page generated in 0.0131 seconds.